sensor_id;sensor_type;location;lat;lon;timestamp;P1;durP1;ratioP1;P2;durP2;ratioP2
11010;SDS011;5558;42.702;23.178;2023-08-31T00:00:51;4.30;;;2.30;;
11010;SDS011;5558;42.702;23.178;2023-08-31T00:03:18;3.77;;;2.53;;
11010;SDS011;5558;42.702;23.178;2023-08-31T00:05:44;2.77;;;2.07;;
11010;SDS011;5558;42.702;23.178;2023-08-31T00:08:11;3.67;;;2.30;;
11010;SDS011;5558;42.702;23.178;2023-08-31T00:10:40;4.87;;;2.10;;
11010;SDS011;5558;42.702;23.178;2023-08-31T00:13:06;5.63;;;2.40;;
11010;SDS011;5558;42.702;23.178;2023-08-31T00:15:33;3.57;;;2.20;;
11010;SDS011;5558;42.702;23.178;2023-08-31T00:18:02;6.90;;;2.50;;
11010;SDS011;5558;42.702;23.178;2023-08-31T00:20:29;5.97;;;2.63;;
11010;SDS011;5558;42.702;23.178;2023-08-31T00:22:56;4.63;;;2.10;;
11010;SDS011;5558;42.702;23.178;2023-08-31T00:25:23;4.90;;;2.10;;
11010;SDS011;5558;42.702;23.178;2023-08-31T00:27:51;3.33;;;2.20;;
11010;SDS011;5558;42.702;23.178;2023-08-31T00:30:19;3.57;;;2.00;;
11010;SDS011;5558;42.702;23.178;2023-08-31T00:32:46;3.60;;;2.27;;
11010;SDS011;5558;42.702;23.178;2023-08-31T00:35:13;5.10;;;2.20;;
11010;SDS011;5558;42.702;23.178;2023-08-31T00:37:40;4.93;;;2.00;;
11010;SDS011;5558;42.702;23.178;2023-08-31T00:40:07;3.70;;;2.00;;
11010;SDS011;5558;42.702;23.178;2023-08-31T00:42:34;4.53;;;2.33;;
11010;SDS011;5558;42.702;23.178;2023-08-31T00:45:04;4.17;;;2.20;;
11010;SDS011;5558;42.702;23.178;2023-08-31T00:47:32;3.23;;;2.10;;
11010;SDS011;5558;42.702;23.178;2023-08-31T00:49:58;4.67;;;2.30;;
11010;SDS011;5558;42.702;23.178;2023-08-31T00:52:26;3.80;;;2.20;;
11010;SDS011;5558;42.702;23.178;2023-08-31T00:54:53;4.03;;;2.23;;
11010;SDS011;5558;42.702;23.178;2023-08-31T00:57:20;5.37;;;2.70;;
11010;SDS011;5558;42.702;23.178;2023-08-31T00:59:47;3.97;;;2.40;;
11010;SDS011;5558;42.702;23.178;2023-08-31T01:02:16;4.03;;;2.43;;
11010;SDS011;5558;42.702;23.178;2023-08-31T01:04:48;3.83;;;2.43;;
11010;SDS011;5558;42.702;23.178;2023-08-31T01:07:25;3.60;;;2.20;;
11010;SDS011;5558;42.702;23.178;2023-08-31T01:10:02;3.77;;;2.20;;
11010;SDS011;5558;42.702;23.178;2023-08-31T01:12:40;3.97;;;2.10;;
11010;SDS011;5558;42.702;23.178;2023-08-31T01:15:12;3.83;;;2.30;;
11010;SDS011;5558;42.702;23.178;2023-08-31T01:17:44;5.00;;;2.37;;
11010;SDS011;5558;42.702;23.178;2023-08-31T01:20:14;3.80;;;2.27;;
11010;SDS011;5558;42.702;23.178;2023-08-31T01:22:47;5.00;;;2.20;;
11010;SDS011;5558;42.702;23.178;2023-08-31T01:25:23;3.80;;;2.00;;
11010;SDS011;5558;42.702;23.178;2023-08-31T01:27:50;4.73;;;2.30;;
11010;SDS011;5558;42.702;23.178;2023-08-31T01:30:18;4.60;;;2.37;;
11010;SDS011;5558;42.702;23.178;2023-08-31T01:32:45;2.80;;;2.03;;
11010;SDS011;5558;42.702;23.178;2023-08-31T01:35:12;4.23;;;2.17;;
11010;SDS011;5558;42.702;23.178;2023-08-31T01:37:43;3.73;;;1.93;;
11010;SDS011;5558;42.702;23.178;2023-08-31T01:40:17;3.80;;;2.10;;
11010;SDS011;5558;42.702;23.178;2023-08-31T01:42:47;3.73;;;2.20;;
11010;SDS011;5558;42.702;23.178;2023-08-31T01:45:15;3.93;;;2.10;;
11010;SDS011;5558;42.702;23.178;2023-08-31T01:47:45;3.27;;;2.23;;
11010;SDS011;5558;42.702;23.178;2023-08-31T01:50:12;3.70;;;2.20;;
11010;SDS011;5558;42.702;23.178;2023-08-31T01:52:39;3.27;;;2.40;;
11010;SDS011;5558;42.702;23.178;2023-08-31T01:55:06;4.23;;;2.20;;
11010;SDS011;5558;42.702;23.178;2023-08-31T01:57:33;4.07;;;2.30;;
11010;SDS011;5558;42.702;23.178;2023-08-31T02:00:01;3.40;;;2.40;;
11010;SDS011;5558;42.702;23.178;2023-08-31T02:02:28;3.57;;;2.27;;
11010;SDS011;5558;42.702;23.178;2023-08-31T02:04:55;4.70;;;2.27;;
11010;SDS011;5558;42.702;23.178;2023-08-31T02:07:22;4.43;;;2.30;;
11010;SDS011;5558;42.702;23.178;2023-08-31T02:09:48;3.17;;;2.20;;
11010;SDS011;5558;42.702;23.178;2023-08-31T02:12:15;3.67;;;2.20;;
11010;SDS011;5558;42.702;23.178;2023-08-31T02:14:42;3.50;;;2.47;;
11010;SDS011;5558;42.702;23.178;2023-08-31T02:17:10;2.40;;;2.10;;
11010;SDS011;5558;42.702;23.178;2023-08-31T02:19:36;4.50;;;2.40;;
11010;SDS011;5558;42.702;23.178;2023-08-31T02:22:03;3.07;;;2.00;;
11010;SDS011;5558;42.702;23.178;2023-08-31T02:24:30;4.23;;;1.97;;
11010;SDS011;5558;42.702;23.178;2023-08-31T02:26:57;3.30;;;2.13;;
11010;SDS011;5558;42.702;23.178;2023-08-31T02:29:23;4.33;;;2.33;;
11010;SDS011;5558;42.702;23.178;2023-08-31T02:31:50;5.37;;;2.47;;
11010;SDS011;5558;42.702;23.178;2023-08-31T02:34:18;4.10;;;2.20;;
11010;SDS011;5558;42.702;23.178;2023-08-31T02:36:45;4.73;;;2.30;;
11010;SDS011;5558;42.702;23.178;2023-08-31T02:39:11;5.73;;;2.17;;
11010;SDS011;5558;42.702;23.178;2023-08-31T02:41:39;4.53;;;2.40;;
11010;SDS011;5558;42.702;23.178;2023-08-31T02:44:06;4.43;;;2.30;;
11010;SDS011;5558;42.702;23.178;2023-08-31T02:46:32;4.63;;;2.10;;
11010;SDS011;5558;42.702;23.178;2023-08-31T02:48:59;3.30;;;2.23;;
11010;SDS011;5558;42.702;23.178;2023-08-31T02:51:27;4.33;;;2.30;;
11010;SDS011;5558;42.702;23.178;2023-08-31T02:53:54;5.07;;;2.60;;
11010;SDS011;5558;42.702;23.178;2023-08-31T02:56:20;3.27;;;2.03;;
11010;SDS011;5558;42.702;23.178;2023-08-31T02:58:47;4.57;;;2.13;;
11010;SDS011;5558;42.702;23.178;2023-08-31T03:01:14;6.37;;;2.30;;
11010;SDS011;5558;42.702;23.178;2023-08-31T03:03:42;3.93;;;2.13;;
11010;SDS011;5558;42.702;23.178;2023-08-31T03:06:10;3.57;;;2.00;;
11010;SDS011;5558;42.702;23.178;2023-08-31T03:08:38;3.40;;;2.00;;
11010;SDS011;5558;42.702;23.178;2023-08-31T03:11:05;4.17;;;2.10;;
11010;SDS011;5558;42.702;23.178;2023-08-31T03:13:32;4.70;;;2.03;;
11010;SDS011;5558;42.702;23.178;2023-08-31T03:16:00;3.30;;;1.90;;
11010;SDS011;5558;42.702;23.178;2023-08-31T03:18:28;3.90;;;2.00;;
11010;SDS011;5558;42.702;23.178;2023-08-31T03:20:55;4.13;;;2.37;;
11010;SDS011;5558;42.702;23.178;2023-08-31T03:23:21;2.80;;;2.00;;
11010;SDS011;5558;42.702;23.178;2023-08-31T03:25:50;4.00;;;2.50;;
11010;SDS011;5558;42.702;23.178;2023-08-31T03:28:16;5.03;;;2.30;;
11010;SDS011;5558;42.702;23.178;2023-08-31T03:30:43;4.30;;;2.57;;
11010;SDS011;5558;42.702;23.178;2023-08-31T03:33:11;5.70;;;2.23;;
11010;SDS011;5558;42.702;23.178;2023-08-31T03:35:37;6.10;;;2.40;;
11010;SDS011;5558;42.702;23.178;2023-08-31T03:38:04;4.97;;;2.30;;
11010;SDS011;5558;42.702;23.178;2023-08-31T03:40:31;4.13;;;2.30;;
11010;SDS011;5558;42.702;23.178;2023-08-31T03:42:59;4.27;;;2.50;;
11010;SDS011;5558;42.702;23.178;2023-08-31T03:45:26;5.00;;;2.60;;
11010;SDS011;5558;42.702;23.178;2023-08-31T03:47:53;5.67;;;2.23;;
11010;SDS011;5558;42.702;23.178;2023-08-31T03:50:19;5.33;;;2.60;;
11010;SDS011;5558;42.702;23.178;2023-08-31T03:52:46;5.23;;;2.63;;
11010;SDS011;5558;42.702;23.178;2023-08-31T03:55:13;6.27;;;2.53;;
11010;SDS011;5558;42.702;23.178;2023-08-31T03:57:40;6.03;;;2.40;;
11010;SDS011;5558;42.702;23.178;2023-08-31T04:00:08;7.57;;;2.33;;
11010;SDS011;5558;42.702;23.178;2023-08-31T04:02:37;7.43;;;2.80;;
11010;SDS011;5558;42.702;23.178;2023-08-31T04:05:05;8.20;;;2.80;;
11010;SDS011;5558;42.702;23.178;2023-08-31T04:07:34;5.33;;;2.37;;
11010;SDS011;5558;42.702;23.178;2023-08-31T04:10:01;4.73;;;2.03;;
11010;SDS011;5558;42.702;23.178;2023-08-31T04:12:28;7.60;;;2.30;;
11010;SDS011;5558;42.702;23.178;2023-08-31T04:14:55;3.17;;;1.80;;
11010;SDS011;5558;42.702;23.178;2023-08-31T04:17:24;3.83;;;1.80;;
11010;SDS011;5558;42.702;23.178;2023-08-31T04:19:51;4.07;;;2.03;;
11010;SDS011;5558;42.702;23.178;2023-08-31T04:22:18;4.73;;;2.00;;
11010;SDS011;5558;42.702;23.178;2023-08-31T04:24:44;3.43;;;1.63;;
11010;SDS011;5558;42.702;23.178;2023-08-31T04:27:11;3.10;;;1.90;;
11010;SDS011;5558;42.702;23.178;2023-08-31T04:29:38;4.77;;;2.10;;
11010;SDS011;5558;42.702;23.178;2023-08-31T04:32:05;3.90;;;2.00;;
11010;SDS011;5558;42.702;23.178;2023-08-31T04:34:33;6.23;;;1.93;;
11010;SDS011;5558;42.702;23.178;2023-08-31T04:37:00;3.33;;;1.80;;
11010;SDS011;5558;42.702;23.178;2023-08-31T04:39:27;2.57;;;1.70;;
11010;SDS011;5558;42.702;23.178;2023-08-31T04:41:54;2.67;;;1.80;;
11010;SDS011;5558;42.702;23.178;2023-08-31T04:44:20;3.20;;;1.97;;
11010;SDS011;5558;42.702;23.178;2023-08-31T04:46:47;2.80;;;1.90;;
11010;SDS011;5558;42.702;23.178;2023-08-31T04:49:14;3.37;;;1.70;;
11010;SDS011;5558;42.702;23.178;2023-08-31T04:51:43;4.07;;;2.00;;
11010;SDS011;5558;42.702;23.178;2023-08-31T04:54:10;4.50;;;2.00;;
11010;SDS011;5558;42.702;23.178;2023-08-31T04:56:37;6.87;;;2.27;;
11010;SDS011;5558;42.702;23.178;2023-08-31T04:59:04;6.87;;;2.20;;
11010;SDS011;5558;42.702;23.178;2023-08-31T05:01:30;4.37;;;2.20;;
11010;SDS011;5558;42.702;23.178;2023-08-31T05:03:57;10.23;;;2.20;;
11010;SDS011;5558;42.702;23.178;2023-08-31T05:06:24;4.70;;;2.03;;
11010;SDS011;5558;42.702;23.178;2023-08-31T05:08:52;4.87;;;1.87;;
11010;SDS011;5558;42.702;23.178;2023-08-31T05:11:19;4.60;;;1.90;;
11010;SDS011;5558;42.702;23.178;2023-08-31T05:13:46;3.67;;;1.83;;
11010;SDS011;5558;42.702;23.178;2023-08-31T05:16:13;2.87;;;1.57;;
11010;SDS011;5558;42.702;23.178;2023-08-31T05:18:40;2.47;;;1.73;;
11010;SDS011;5558;42.702;23.178;2023-08-31T05:21:07;3.47;;;1.93;;
11010;SDS011;5558;42.702;23.178;2023-08-31T05:23:33;3.67;;;1.90;;
11010;SDS011;5558;42.702;23.178;2023-08-31T05:26:01;4.57;;;2.10;;
11010;SDS011;5558;42.702;23.178;2023-08-31T05:28:28;3.13;;;1.70;;
11010;SDS011;5558;42.702;23.178;2023-08-31T05:30:55;4.20;;;2.10;;
11010;SDS011;5558;42.702;23.178;2023-08-31T05:33:23;2.43;;;1.90;;
11010;SDS011;5558;42.702;23.178;2023-08-31T05:35:52;3.43;;;2.07;;
11010;SDS011;5558;42.702;23.178;2023-08-31T05:38:19;3.00;;;1.97;;
11010;SDS011;5558;42.702;23.178;2023-08-31T05:40:46;3.90;;;2.00;;
11010;SDS011;5558;42.702;23.178;2023-08-31T05:43:14;4.43;;;2.00;;
11010;SDS011;5558;42.702;23.178;2023-08-31T05:45:41;3.03;;;1.80;;
11010;SDS011;5558;42.702;23.178;2023-08-31T05:48:08;3.30;;;1.90;;
11010;SDS011;5558;42.702;23.178;2023-08-31T05:50:34;4.72;;;1.92;;
11010;SDS011;5558;42.702;23.178;2023-08-31T05:53:02;3.33;;;2.13;;
11010;SDS011;5558;42.702;23.178;2023-08-31T05:55:29;3.90;;;2.00;;
11010;SDS011;5558;42.702;23.178;2023-08-31T05:57:57;2.85;;;1.80;;
11010;SDS011;5558;42.702;23.178;2023-08-31T06:00:26;4.28;;;1.90;;
11010;SDS011;5558;42.702;23.178;2023-08-31T06:02:53;2.60;;;1.73;;
11010;SDS011;5558;42.702;23.178;2023-08-31T06:05:20;2.97;;;1.88;;
11010;SDS011;5558;42.702;23.178;2023-08-31T06:07:47;3.00;;;1.60;;
11010;SDS011;5558;42.702;23.178;2023-08-31T06:10:13;3.28;;;1.88;;
11010;SDS011;5558;42.702;23.178;2023-08-31T06:12:40;3.35;;;1.63;;
11010;SDS011;5558;42.702;23.178;2023-08-31T06:15:07;3.17;;;1.65;;
11010;SDS011;5558;42.702;23.178;2023-08-31T06:17:36;4.28;;;1.60;;
11010;SDS011;5558;42.702;23.178;2023-08-31T06:20:02;2.78;;;1.60;;
11010;SDS011;5558;42.702;23.178;2023-08-31T06:22:31;3.25;;;1.80;;
11010;SDS011;5558;42.702;23.178;2023-08-31T06:24:58;2.58;;;1.70;;
11010;SDS011;5558;42.702;23.178;2023-08-31T06:27:24;3.95;;;1.85;;
11010;SDS011;5558;42.702;23.178;2023-08-31T06:29:51;3.45;;;1.75;;
11010;SDS011;5558;42.702;23.178;2023-08-31T06:32:18;2.83;;;1.77;;
11010;SDS011;5558;42.702;23.178;2023-08-31T06:34:46;3.03;;;1.70;;
11010;SDS011;5558;42.702;23.178;2023-08-31T06:37:13;4.70;;;1.85;;
11010;SDS011;5558;42.702;23.178;2023-08-31T06:39:40;3.20;;;1.70;;
11010;SDS011;5558;42.702;23.178;2023-08-31T06:42:06;3.05;;;1.80;;
11010;SDS011;5558;42.702;23.178;2023-08-31T06:44:33;2.17;;;1.80;;
11010;SDS011;5558;42.702;23.178;2023-08-31T06:47:00;3.00;;;1.63;;
11010;SDS011;5558;42.702;23.178;2023-08-31T06:49:28;3.40;;;1.80;;
11010;SDS011;5558;42.702;23.178;2023-08-31T06:51:59;4.33;;;1.67;;
11010;SDS011;5558;42.702;23.178;2023-08-31T06:54:27;5.65;;;1.80;;
11010;SDS011;5558;42.702;23.178;2023-08-31T06:56:54;3.70;;;1.90;;
11010;SDS011;5558;42.702;23.178;2023-08-31T06:59:20;3.73;;;1.80;;
11010;SDS011;5558;42.702;23.178;2023-08-31T07:01:47;3.95;;;1.80;;
11010;SDS011;5558;42.702;23.178;2023-08-31T07:04:14;3.55;;;1.80;;
11010;SDS011;5558;42.702;23.178;2023-08-31T07:06:40;2.83;;;2.10;;
11010;SDS011;5558;42.702;23.178;2023-08-31T07:09:08;3.47;;;2.10;;
11010;SDS011;5558;42.702;23.178;2023-08-31T07:11:36;3.87;;;1.90;;
11010;SDS011;5558;42.702;23.178;2023-08-31T07:14:03;4.13;;;1.80;;
11010;SDS011;5558;42.702;23.178;2023-08-31T07:16:30;3.27;;;1.83;;
11010;SDS011;5558;42.702;23.178;2023-08-31T07:18:57;4.13;;;2.03;;
11010;SDS011;5558;42.702;23.178;2023-08-31T07:21:23;4.17;;;1.97;;
11010;SDS011;5558;42.702;23.178;2023-08-31T07:23:50;3.63;;;2.00;;
11010;SDS011;5558;42.702;23.178;2023-08-31T07:26:18;2.30;;;1.70;;
11010;SDS011;5558;42.702;23.178;2023-08-31T07:28:45;4.53;;;1.93;;
11010;SDS011;5558;42.702;23.178;2023-08-31T07:31:11;4.40;;;1.90;;
11010;SDS011;5558;42.702;23.178;2023-08-31T07:33:38;3.27;;;1.80;;
11010;SDS011;5558;42.702;23.178;2023-08-31T07:36:05;4.20;;;2.10;;
11010;SDS011;5558;42.702;23.178;2023-08-31T07:38:32;3.03;;;2.20;;
11010;SDS011;5558;42.702;23.178;2023-08-31T07:40:59;3.47;;;2.10;;
11010;SDS011;5558;42.702;23.178;2023-08-31T07:43:27;5.20;;;2.00;;
11010;SDS011;5558;42.702;23.178;2023-08-31T07:45:54;4.93;;;2.10;;
11010;SDS011;5558;42.702;23.178;2023-08-31T07:48:21;4.03;;;2.00;;
11010;SDS011;5558;42.702;23.178;2023-08-31T07:50:49;3.23;;;1.90;;
11010;SDS011;5558;42.702;23.178;2023-08-31T07:53:16;3.00;;;1.90;;
11010;SDS011;5558;42.702;23.178;2023-08-31T07:55:50;3.27;;;2.67;;
11010;SDS011;5558;42.702;23.178;2023-08-31T07:58:19;4.67;;;3.50;;
11010;SDS011;5558;42.702;23.178;2023-08-31T08:00:47;4.37;;;3.40;;
11010;SDS011;5558;42.702;23.178;2023-08-31T08:03:14;4.90;;;3.87;;
11010;SDS011;5558;42.702;23.178;2023-08-31T08:05:41;3.73;;;3.10;;
11010;SDS011;5558;42.702;23.178;2023-08-31T08:08:07;3.93;;;3.50;;
11010;SDS011;5558;42.702;23.178;2023-08-31T08:10:34;4.10;;;3.50;;
11010;SDS011;5558;42.702;23.178;2023-08-31T08:13:01;3.90;;;3.47;;
11010;SDS011;5558;42.702;23.178;2023-08-31T08:15:28;3.80;;;3.40;;
11010;SDS011;5558;42.702;23.178;2023-08-31T08:17:57;7.00;;;4.43;;
11010;SDS011;5558;42.702;23.178;2023-08-31T08:20:24;4.50;;;3.60;;
11010;SDS011;5558;42.702;23.178;2023-08-31T08:22:51;6.07;;;4.10;;
11010;SDS011;5558;42.702;23.178;2023-08-31T08:25:18;5.70;;;3.90;;
11010;SDS011;5558;42.702;23.178;2023-08-31T08:27:45;5.03;;;4.10;;
11010;SDS011;5558;42.702;23.178;2023-08-31T08:30:12;4.43;;;3.70;;
11010;SDS011;5558;42.702;23.178;2023-08-31T08:32:39;6.20;;;3.70;;
11010;SDS011;5558;42.702;23.178;2023-08-31T08:35:07;4.93;;;3.97;;
11010;SDS011;5558;42.702;23.178;2023-08-31T08:37:34;4.13;;;3.70;;
11010;SDS011;5558;42.702;23.178;2023-08-31T08:40:01;4.47;;;3.80;;
11010;SDS011;5558;42.702;23.178;2023-08-31T08:42:29;4.63;;;3.50;;
11010;SDS011;5558;42.702;23.178;2023-08-31T08:44:57;5.07;;;4.13;;
11010;SDS011;5558;42.702;23.178;2023-08-31T08:47:25;4.30;;;3.60;;
11010;SDS011;5558;42.702;23.178;2023-08-31T08:49:52;4.40;;;3.43;;
11010;SDS011;5558;42.702;23.178;2023-08-31T08:52:21;3.67;;;3.37;;
11010;SDS011;5558;42.702;23.178;2023-08-31T08:54:49;4.30;;;3.53;;
11010;SDS011;5558;42.702;23.178;2023-08-31T08:57:16;4.60;;;3.40;;
11010;SDS011;5558;42.702;23.178;2023-08-31T08:59:42;4.97;;;3.80;;
11010;SDS011;5558;42.702;23.178;2023-08-31T09:02:10;4.57;;;3.50;;
11010;SDS011;5558;42.702;23.178;2023-08-31T09:04:37;3.73;;;3.40;;
11010;SDS011;5558;42.702;23.178;2023-08-31T09:07:04;4.40;;;3.80;;
11010;SDS011;5558;42.702;23.178;2023-08-31T09:09:32;4.73;;;3.33;;
11010;SDS011;5558;42.702;23.178;2023-08-31T09:12:14;4.37;;;3.83;;
11010;SDS011;5558;42.702;23.178;2023-08-31T09:14:41;4.20;;;3.67;;
11010;SDS011;5558;42.702;23.178;2023-08-31T09:17:07;6.27;;;3.77;;
11010;SDS011;5558;42.702;23.178;2023-08-31T09:19:34;4.00;;;3.60;;
11010;SDS011;5558;42.702;23.178;2023-08-31T09:22:01;5.00;;;3.80;;
11010;SDS011;5558;42.702;23.178;2023-08-31T09:24:27;3.93;;;3.60;;
11010;SDS011;5558;42.702;23.178;2023-08-31T09:26:56;3.90;;;3.50;;
11010;SDS011;5558;42.702;23.178;2023-08-31T09:29:24;4.33;;;3.60;;
11010;SDS011;5558;42.702;23.178;2023-08-31T09:31:50;4.37;;;3.97;;
11010;SDS011;5558;42.702;23.178;2023-08-31T09:34:17;4.23;;;3.83;;
11010;SDS011;5558;42.702;23.178;2023-08-31T09:36:44;4.43;;;3.90;;
11010;SDS011;5558;42.702;23.178;2023-08-31T09:39:12;3.93;;;3.63;;
11010;SDS011;5558;42.702;23.178;2023-08-31T09:41:51;4.13;;;3.70;;
11010;SDS011;5558;42.702;23.178;2023-08-31T09:44:20;4.40;;;3.90;;
11010;SDS011;5558;42.702;23.178;2023-08-31T09:46:47;4.03;;;3.63;;
11010;SDS011;5558;42.702;23.178;2023-08-31T09:49:15;4.30;;;3.90;;
11010;SDS011;5558;42.702;23.178;2023-08-31T09:51:44;5.23;;;3.60;;
11010;SDS011;5558;42.702;23.178;2023-08-31T09:54:13;4.30;;;3.90;;
11010;SDS011;5558;42.702;23.178;2023-08-31T09:56:42;4.40;;;4.00;;
11010;SDS011;5558;42.702;23.178;2023-08-31T09:59:09;4.73;;;3.87;;
11010;SDS011;5558;42.702;23.178;2023-08-31T10:01:38;4.80;;;3.80;;
11010;SDS011;5558;42.702;23.178;2023-08-31T10:04:06;4.30;;;3.90;;
11010;SDS011;5558;42.702;23.178;2023-08-31T10:06:34;4.27;;;3.83;;
11010;SDS011;5558;42.702;23.178;2023-08-31T10:09:02;4.13;;;3.73;;
11010;SDS011;5558;42.702;23.178;2023-08-31T10:11:29;3.87;;;3.53;;
11010;SDS011;5558;42.702;23.178;2023-08-31T10:13:58;4.00;;;3.40;;
11010;SDS011;5558;42.702;23.178;2023-08-31T10:16:25;4.30;;;3.50;;
11010;SDS011;5558;42.702;23.178;2023-08-31T10:18:54;4.23;;;3.83;;
11010;SDS011;5558;42.702;23.178;2023-08-31T10:21:22;3.60;;;3.30;;
11010;SDS011;5558;42.702;23.178;2023-08-31T10:23:49;4.13;;;3.57;;
11010;SDS011;5558;42.702;23.178;2023-08-31T10:26:23;5.53;;;3.80;;
11010;SDS011;5558;42.702;23.178;2023-08-31T10:28:51;3.90;;;3.50;;
11010;SDS011;5558;42.702;23.178;2023-08-31T10:31:18;3.80;;;3.40;;
11010;SDS011;5558;42.702;23.178;2023-08-31T10:33:47;4.67;;;3.70;;
11010;SDS011;5558;42.702;23.178;2023-08-31T10:36:34;3.73;;;3.43;;
11010;SDS011;5558;42.702;23.178;2023-08-31T10:39:05;4.47;;;4.00;;
11010;SDS011;5558;42.702;23.178;2023-08-31T10:41:33;4.30;;;3.60;;
11010;SDS011;5558;42.702;23.178;2023-08-31T10:44:01;3.83;;;3.43;;
11010;SDS011;5558;42.702;23.178;2023-08-31T10:46:28;4.20;;;3.50;;
11010;SDS011;5558;42.702;23.178;2023-08-31T10:48:58;4.10;;;3.40;;
11010;SDS011;5558;42.702;23.178;2023-08-31T10:51:27;3.30;;;3.00;;
11010;SDS011;5558;42.702;23.178;2023-08-31T10:54:07;4.07;;;3.10;;
11010;SDS011;5558;42.702;23.178;2023-08-31T10:59:42;4.10;;;3.20;;
11010;SDS011;5558;42.702;23.178;2023-08-31T11:02:11;4.03;;;2.90;;
11010;SDS011;5558;42.702;23.178;2023-08-31T11:04:55;4.30;;;2.70;;
11010;SDS011;5558;42.702;23.178;2023-08-31T11:07:25;3.30;;;2.70;;
11010;SDS011;5558;42.702;23.178;2023-08-31T11:10:05;5.00;;;2.87;;
11010;SDS011;5558;42.702;23.178;2023-08-31T11:12:33;3.37;;;2.60;;
11010;SDS011;5558;42.702;23.178;2023-08-31T11:15:00;3.70;;;2.60;;
11010;SDS011;5558;42.702;23.178;2023-08-31T11:17:28;3.20;;;2.90;;
11010;SDS011;5558;42.702;23.178;2023-08-31T11:19:57;3.77;;;2.90;;
11010;SDS011;5558;42.702;23.178;2023-08-31T11:22:23;3.40;;;3.10;;
11010;SDS011;5558;42.702;23.178;2023-08-31T11:24:50;3.30;;;3.00;;
11010;SDS011;5558;42.702;23.178;2023-08-31T11:27:18;5.73;;;2.90;;
11010;SDS011;5558;42.702;23.178;2023-08-31T11:29:45;3.27;;;2.70;;
11010;SDS011;5558;42.702;23.178;2023-08-31T11:32:12;4.50;;;2.97;;
11010;SDS011;5558;42.702;23.178;2023-08-31T11:34:40;3.57;;;2.87;;
11010;SDS011;5558;42.702;23.178;2023-08-31T11:37:09;4.03;;;2.90;;
11010;SDS011;5558;42.702;23.178;2023-08-31T11:39:37;4.00;;;2.70;;
11010;SDS011;5558;42.702;23.178;2023-08-31T11:42:05;4.33;;;2.93;;
11010;SDS011;5558;42.702;23.178;2023-08-31T11:44:31;3.50;;;2.97;;
11010;SDS011;5558;42.702;23.178;2023-08-31T11:46:58;3.53;;;3.10;;
11010;SDS011;5558;42.702;23.178;2023-08-31T11:49:25;3.63;;;3.07;;
11010;SDS011;5558;42.702;23.178;2023-08-31T11:51:53;3.03;;;2.70;;
11010;SDS011;5558;42.702;23.178;2023-08-31T11:54:22;3.57;;;2.60;;
11010;SDS011;5558;42.702;23.178;2023-08-31T11:56:51;4.00;;;2.50;;
11010;SDS011;5558;42.702;23.178;2023-08-31T11:59:18;4.27;;;2.70;;
11010;SDS011;5558;42.702;23.178;2023-08-31T12:01:46;8.10;;;3.00;;
11010;SDS011;5558;42.702;23.178;2023-08-31T12:04:14;3.80;;;2.50;;
11010;SDS011;5558;42.702;23.178;2023-08-31T12:06:42;4.07;;;2.80;;
11010;SDS011;5558;42.702;23.178;2023-08-31T12:09:12;4.63;;;2.60;;
11010;SDS011;5558;42.702;23.178;2023-08-31T12:11:40;3.40;;;2.67;;
11010;SDS011;5558;42.702;23.178;2023-08-31T12:14:18;4.27;;;2.73;;
11010;SDS011;5558;42.702;23.178;2023-08-31T12:16:46;3.70;;;2.80;;
11010;SDS011;5558;42.702;23.178;2023-08-31T12:19:13;4.33;;;2.80;;
11010;SDS011;5558;42.702;23.178;2023-08-31T12:21:41;3.70;;;3.03;;
11010;SDS011;5558;42.702;23.178;2023-08-31T12:24:08;2.77;;;2.50;;
11010;SDS011;5558;42.702;23.178;2023-08-31T12:26:35;4.50;;;2.67;;
11010;SDS011;5558;42.702;23.178;2023-08-31T12:29:03;4.70;;;2.50;;
11010;SDS011;5558;42.702;23.178;2023-08-31T12:31:30;3.63;;;2.73;;
11010;SDS011;5558;42.702;23.178;2023-08-31T12:33:58;3.53;;;2.60;;
11010;SDS011;5558;42.702;23.178;2023-08-31T12:36:25;2.77;;;2.47;;
11010;SDS011;5558;42.702;23.178;2023-08-31T12:38:52;3.60;;;2.50;;
11010;SDS011;5558;42.702;23.178;2023-08-31T12:41:19;4.97;;;2.43;;
11010;SDS011;5558;42.702;23.178;2023-08-31T12:43:45;6.43;;;3.03;;
11010;SDS011;5558;42.702;23.178;2023-08-31T12:46:13;3.70;;;2.50;;
11010;SDS011;5558;42.702;23.178;2023-08-31T12:48:41;3.20;;;2.60;;
11010;SDS011;5558;42.702;23.178;2023-08-31T12:51:08;3.77;;;2.47;;
11010;SDS011;5558;42.702;23.178;2023-08-31T12:53:37;3.27;;;2.50;;
11010;SDS011;5558;42.702;23.178;2023-08-31T12:56:04;3.53;;;2.43;;
11010;SDS011;5558;42.702;23.178;2023-08-31T12:58:31;2.70;;;2.40;;
11010;SDS011;5558;42.702;23.178;2023-08-31T13:00:57;2.67;;;2.40;;
11010;SDS011;5558;42.702;23.178;2023-08-31T13:03:26;2.77;;;2.30;;
11010;SDS011;5558;42.702;23.178;2023-08-31T13:05:52;3.97;;;2.57;;
11010;SDS011;5558;42.702;23.178;2023-08-31T13:08:19;2.73;;;2.30;;
11010;SDS011;5558;42.702;23.178;2023-08-31T13:10:50;4.23;;;2.63;;
11010;SDS011;5558;42.702;23.178;2023-08-31T13:13:17;4.77;;;2.80;;
11010;SDS011;5558;42.702;23.178;2023-08-31T13:15:45;4.63;;;2.70;;
11010;SDS011;5558;42.702;23.178;2023-08-31T13:18:12;3.57;;;2.77;;
11010;SDS011;5558;42.702;23.178;2023-08-31T13:20:40;3.57;;;2.50;;
11010;SDS011;5558;42.702;23.178;2023-08-31T13:23:07;3.13;;;2.47;;
11010;SDS011;5558;42.702;23.178;2023-08-31T13:25:34;3.30;;;2.47;;
11010;SDS011;5558;42.702;23.178;2023-08-31T13:28:01;3.73;;;2.60;;
11010;SDS011;5558;42.702;23.178;2023-08-31T13:30:29;2.87;;;2.50;;
11010;SDS011;5558;42.702;23.178;2023-08-31T13:32:55;3.80;;;2.50;;
11010;SDS011;5558;42.702;23.178;2023-08-31T13:35:22;4.20;;;2.63;;
11010;SDS011;5558;42.702;23.178;2023-08-31T13:37:50;3.47;;;2.50;;
11010;SDS011;5558;42.702;23.178;2023-08-31T13:40:17;4.60;;;2.60;;
11010;SDS011;5558;42.702;23.178;2023-08-31T13:42:49;4.03;;;2.80;;
11010;SDS011;5558;42.702;23.178;2023-08-31T13:45:20;2.90;;;2.30;;
11010;SDS011;5558;42.702;23.178;2023-08-31T13:47:46;6.00;;;2.70;;
11010;SDS011;5558;42.702;23.178;2023-08-31T13:50:14;4.07;;;2.33;;
11010;SDS011;5558;42.702;23.178;2023-08-31T13:52:41;3.27;;;2.80;;
11010;SDS011;5558;42.702;23.178;2023-08-31T13:55:09;3.57;;;2.47;;
11010;SDS011;5558;42.702;23.178;2023-08-31T13:57:36;4.47;;;2.70;;
11010;SDS011;5558;42.702;23.178;2023-08-31T14:00:03;3.30;;;2.57;;
11010;SDS011;5558;42.702;23.178;2023-08-31T14:02:34;3.13;;;2.40;;
11010;SDS011;5558;42.702;23.178;2023-08-31T14:05:01;3.80;;;2.40;;
11010;SDS011;5558;42.702;23.178;2023-08-31T14:07:28;3.80;;;2.43;;
11010;SDS011;5558;42.702;23.178;2023-08-31T14:09:55;3.40;;;2.47;;
11010;SDS011;5558;42.702;23.178;2023-08-31T14:12:24;3.47;;;2.70;;
11010;SDS011;5558;42.702;23.178;2023-08-31T14:14:50;4.73;;;2.60;;
11010;SDS011;5558;42.702;23.178;2023-08-31T14:17:17;3.40;;;2.50;;
11010;SDS011;5558;42.702;23.178;2023-08-31T14:19:44;3.33;;;2.47;;
11010;SDS011;5558;42.702;23.178;2023-08-31T14:22:11;3.57;;;2.60;;
11010;SDS011;5558;42.702;23.178;2023-08-31T14:24:38;3.93;;;2.60;;
11010;SDS011;5558;42.702;23.178;2023-08-31T14:27:04;3.70;;;2.57;;
11010;SDS011;5558;42.702;23.178;2023-08-31T14:29:32;3.87;;;2.33;;
11010;SDS011;5558;42.702;23.178;2023-08-31T14:32:00;4.87;;;2.63;;
11010;SDS011;5558;42.702;23.178;2023-08-31T14:34:27;3.83;;;2.50;;
11010;SDS011;5558;42.702;23.178;2023-08-31T14:36:53;17.67;;;3.40;;
11010;SDS011;5558;42.702;23.178;2023-08-31T14:39:22;3.83;;;2.73;;
11010;SDS011;5558;42.702;23.178;2023-08-31T14:41:50;3.97;;;2.97;;
11010;SDS011;5558;42.702;23.178;2023-08-31T14:44:16;2.87;;;2.53;;
11010;SDS011;5558;42.702;23.178;2023-08-31T14:46:44;5.40;;;2.70;;
11010;SDS011;5558;42.702;23.178;2023-08-31T14:49:11;4.17;;;2.77;;
11010;SDS011;5558;42.702;23.178;2023-08-31T14:51:38;3.97;;;2.87;;
11010;SDS011;5558;42.702;23.178;2023-08-31T14:54:04;5.53;;;3.00;;